Map

Track Data

SID SEASON NUMBER BASIN SUBBASIN NAME ISO_TIME NATURE LAT LON WMO_WIND WMO_PRES WMO_AGENCY TRACK_TYPE DIST2LAND LANDFALL IFLAG USA_AGENCY USA_ATCF_ID USA_LAT USA_LON USA_RECORD USA_STATUS USA_WIND USA_PRES USA_SSHS USA_R34_NE USA_R34_SE USA_R34_SW USA_R34_NW USA_R50_NE USA_R50_SE USA_R50_SW USA_R50_NW USA_R64_NE USA_R64_SE USA_R64_SW USA_R64_NW USA_POCI USA_ROCI USA_RMW USA_EYE TOKYO_LAT TOKYO_LON TOKYO_GRADE TOKYO_WIND TOKYO_PRES TOKYO_R50_DIR TOKYO_R50_LONG TOKYO_R50_SHORT TOKYO_R30_DIR TOKYO_R30_LONG TOKYO_R30_SHORT TOKYO_LAND CMA_LAT CMA_LON CMA_CAT CMA_WIND CMA_PRES HKO_LAT HKO_LON HKO_CAT HKO_WIND HKO_PRES NEWDELHI_LAT NEWDELHI_LON NEWDELHI_GRADE NEWDELHI_WIND NEWDELHI_PRES NEWDELHI_CI NEWDELHI_DP NEWDELHI_POCI REUNION_LAT REUNION_LON REUNION_TYPE REUNION_WIND REUNION_PRES REUNION_TNUM REUNION_CI REUNION_RMW REUNION_R34_NE REUNION_R34_SE REUNION_R34_SW REUNION_R34_NW REUNION_R50_NE REUNION_R50_SE REUNION_R50_SW REUNION_R50_NW REUNION_R64_NE REUNION_R64_SE REUNION_R64_SW REUNION_R64_NW BOM_LAT BOM_LON BOM_TYPE BOM_WIND BOM_PRES BOM_TNUM BOM_CI BOM_RMW BOM_R34_NE BOM_R34_SE BOM_R34_SW BOM_R34_NW BOM_R50_NE BOM_R50_SE BOM_R50_SW BOM_R50_NW BOM_R64_NE BOM_R64_SE BOM_R64_SW BOM_R64_NW BOM_ROCI BOM_POCI BOM_EYE BOM_POS_METHOD BOM_PRES_METHOD NADI_LAT NADI_LON NADI_CAT NADI_WIND NADI_PRES WELLINGTON_LAT WELLINGTON_LON WELLINGTON_WIND WELLINGTON_PRES DS824_LAT DS824_LON DS824_STAGE DS824_WIND DS824_PRES TD9636_LAT TD9636_LON TD9636_STAGE TD9636_WIND TD9636_PRES TD9635_LAT TD9635_LON TD9635_WIND TD9635_PRES TD9635_ROCI NEUMANN_LAT NEUMANN_LON NEUMANN_CLASS NEUMANN_WIND NEUMANN_PRES MLC_LAT MLC_LON MLC_CLASS MLC_WIND MLC_PRES USA_GUST BOM_GUST BOM_GUST_PER REUNION_GUST REUNION_GUST_PER USA_SEAHGT USA_SEARAD_NE USA_SEARAD_SE USA_SEARAD_SW USA_SEARAD_NW STORM_SPEED STORM_DIR
1881208N35286 1881 23 NA NA NOT_NAMED 1881-07-26 12:00:00 TS 34.5000 -73.7000 main 218 218 _____________O -1 34.5000 -73.7000 TD 30 2 90
1881208N35286 1881 23 NA NA NOT_NAMED 1881-07-26 15:00:00 TS 34.5000 -73.5500 main 232 225 _____________P -1 34.5000 -73.5500 TD 32 2 90
1881208N35286 1881 23 NA NA NOT_NAMED 1881-07-26 18:00:00 TS 34.5000 -73.4000 main 239 239 _____________O -1 34.5000 -73.4000 TS 35 2 90
1881208N35286 1881 23 NA NA NOT_NAMED 1881-07-26 21:00:00 TS 34.5000 -73.2500 main 254 254 _____________P -1 34.5000 -73.2500 TS 42 2 90
1881208N35286 1881 23 NA NA NOT_NAMED 1881-07-27 00:00:00 TS 34.5000 -73.1000 main 261 261 _____________O -1 34.5000 -73.1000 TS 50 2 90
1881208N35286 1881 23 NA NA NOT_NAMED 1881-07-27 03:00:00 TS 34.5000 -72.9500 main 276 269 _____________P -1 34.5000 -72.9500 TS 55 2 90
1881208N35286 1881 23 NA NA NOT_NAMED 1881-07-27 06:00:00 TS 34.5000 -72.8000 main 284 284 _____________O -1 34.5000 -72.8000 TS 60 3 87
1881208N35286 1881 23 NA NA NOT_NAMED 1881-07-27 09:00:00 TS 34.5150 -72.6350 main 300 300 _____________P -1 34.5150 -72.6350 TS 62 2 90
1881208N35286 1881 23 NA NA NOT_NAMED 1881-07-27 12:00:00 TS 34.5000 -72.5000 main 308 308 _____________O -1 34.5000 -72.5000 HU 65 2 106
1881208N35286 1881 23 NA NA NOT_NAMED 1881-07-27 15:00:00 TS 34.4675 -72.4275 main 316 316 _____________P -1 34.4675 -72.4275 HU 65 2 157
1881208N35286 1881 23 NA NA NOT_NAMED 1881-07-27 18:00:00 TS 34.3000 -72.4000 main 327 327 _____________O -1 34.3000 -72.4000 HU 65 6 176
1881208N35286 1881 23 NA NA NOT_NAMED 1881-07-27 21:00:00 TS 33.9025 -72.3773 main 352 352 _____________P -1 33.9025 -72.3773 HU 65 9 0
1881208N35286 1881 23 NA NA NOT_NAMED 1881-07-28 00:00:00 TS 33.4000 -72.4000 main 388 388 _____________O -1 33.4000 -72.4000 HU 65 10 185
1881208N35286 1881 23 NA NA NOT_NAMED 1881-07-28 03:00:00 TS 32.9575 -72.4851 main 408 408 _____________P -1 32.9575 -72.4851 HU 65 9 190
1881208N35286 1881 23 NA NA NOT_NAMED 1881-07-28 06:00:00 TS 32.5000 -72.6000 main 433 433 _____________O -1 32.5000 -72.6000 HU 65 10 190
1881208N35286 1881 23 NA NA NOT_NAMED 1881-07-28 09:00:00 TS 31.9999 -72.6771 main 463 463 _____________P -1 31.9999 -72.6771 HU 65 10 190
1881208N35286 1881 23 NA NA NOT_NAMED 1881-07-28 12:00:00 TS 31.5000 -72.8000 main 495 495 _____________O -1 31.5000 -72.8000 HU 65 10 198
1881208N35286 1881 23 NA NA NOT_NAMED 1881-07-28 15:00:00 TS 31.0426 -73.0352 main 525 520 _____________P -1 31.0426 -73.0352 HU 65 10 205
1881208N35286 1881 23 NA NA NOT_NAMED 1881-07-28 18:00:00 TS 30.6000 -73.3000 main 546 546 _____________O -1 30.6000 -73.3000 HU 65 10 201
1881208N35286 1881 23 NA NA NOT_NAMED 1881-07-28 21:00:00 TS 30.1494 -73.4388 main 589 584 _____________P -1 30.1494 -73.4388 HU 65 10 201
1881208N35286 1881 23 NA NA NOT_NAMED 1881-07-29 00:00:00 TS 29.7000 -73.7000 main 616 600 _____________O -1 29.7000 -73.7000 HU 65 12 219
1881208N35286 1881 23 NA NA NOT_NAMED 1881-07-29 03:00:00 TS 29.2504 -74.2829 main 594 508 _____________P -1 29.2504 -74.2829 HU 57 14 232
1881208N35286 1881 23 NA NA NOT_NAMED 1881-07-29 06:00:00 TS 28.8000 -75.0000 main 508 429 _____________O -1 28.8000 -75.0000 TS 50 15 232
1881208N35286 1881 23 NA NA NOT_NAMED 1881-07-29 09:00:00 TS 28.3122 -75.6501 main 424 355 _____________P -1 28.3122 -75.6501 TS 42 15 232
1881208N35286 1881 23 NA NA NOT_NAMED 1881-07-29 12:00:00 TS 27.9000 -76.3000 main 355 310 _____________O -1 27.9000 -76.3000 TS 35 13 240
1881208N35286 1881 23 NA NA NOT_NAMED 1881-07-29 15:00:00 TS 27.6473 -76.9569 main 296 249 _____________P -1 27.6473 -76.9569 TS 32 12 251
1881208N35286 1881 23 NA NA NOT_NAMED 1881-07-29 18:00:00 TS 27.5000 -77.6000 main 249 190 _____________O -1 27.5000 -77.6000 TD 30 11 256
1881208N35286 1881 23 NA NA NOT_NAMED 1881-07-29 21:00:00 TS 27.3771 -78.2072 main 190 131 _____________P -1 27.3771 -78.2072 TD 27 11 259
1881208N35286 1881 23 NA NA NOT_NAMED 1881-07-30 00:00:00 DS 27.3000 -78.8000 main 131 72 _____________O -1 27.3000 -78.8000 WV 25 11 263
1881208N35286 1881 23 NA NA NOT_NAMED 1881-07-30 03:00:00 DS 27.2422 -79.3998 main 72 19 _____________P -1 27.2422 -79.3998 WV 22 11 265
1881208N35286 1881 23 NA NA NOT_NAMED 1881-07-30 06:00:00 DS 27.2000 -80.0000 main 19 0 _____________O -1 27.2000 -80.0000 WV 20 11 265
1881208N35286 1881 23 NA NA NOT_NAMED 1881-07-30 09:00:00 DS 27.1497 -80.5999 main 0 0 _____________P -1 27.1497 -80.5999 WV 20 11 265
1881208N35286 1881 23 NA NA NOT_NAMED 1881-07-30 12:00:00 DS 27.1000 -81.2000 main 0 0 _____________O -1 27.1000 -81.2000 WV 20 11 265
1881208N35286 1881 23 NA NA NOT_NAMED 1881-07-30 15:00:00 DS 27.0497 -81.7999 main 0 0 _____________P -1 27.0497 -81.7999 WV 20 11 265
1881208N35286 1881 23 NA GM NOT_NAMED 1881-07-30 18:00:00 DS 27.0000 -82.4000 main 9 9 _____________O -1 27.0000 -82.4000 WV 20 11 265
1881208N35286 1881 23 NA GM NOT_NAMED 1881-07-30 21:00:00 DS 26.9497 -82.9999 main 59 59 _____________P -1 26.9497 -82.9999 WV 20 11 265
1881208N35286 1881 23 NA GM NOT_NAMED 1881-07-31 00:00:00 DS 26.9000 -83.6000 main 108 108 _____________O -1 26.9000 -83.6000 WV 20 11 264
1881208N35286 1881 23 NA GM NOT_NAMED 1881-07-31 03:00:00 DS 26.8422 -84.2001 main 167 167 _____________P -1 26.8422 -84.2001 WV 20 11 265
1881208N35286 1881 23 NA GM NOT_NAMED 1881-07-31 06:00:00 DS 26.8000 -84.8000 main 224 224 _____________O -1 26.8000 -84.8000 WV 20 11 267
1881208N35286 1881 23 NA GM NOT_NAMED 1881-07-31 09:00:00 DS 26.7924 -85.4149 main 275 275 _____________P -1 26.7924 -85.4149 WV 20 11 270
1881208N35286 1881 23 NA GM NOT_NAMED 1881-07-31 12:00:00 DS 26.8000 -86.0000 main 329 329 _____________O -1 26.8000 -86.0000 WV 20 10 270
1881208N35286 1881 23 NA GM NOT_NAMED 1881-07-31 15:00:00 DS 26.8000 -86.5525 main 344 320 _____________P -1 26.8000 -86.5525 WV 20 9 270
1881208N35286 1881 23 NA GM NOT_NAMED 1881-07-31 18:00:00 DS 26.8000 -87.0000 main 320 302 _____________O -1 26.8000 -87.0000 WV 20 7 269
1881208N35286 1881 23 NA GM NOT_NAMED 1881-07-31 21:00:00 DS 26.7848 -87.3100 main 302 291 _____________P -1 26.7848 -87.3100 WV 20 4 270
1881208N35286 1881 23 NA GM NOT_NAMED 1881-08-01 00:00:00 DS 26.8000 -87.5000 main 291 276 _____________O -1 26.8000 -87.5000 WV 20 3 288
1881208N35286 1881 23 NA GM NOT_NAMED 1881-08-01 03:00:00 DS 26.8774 -87.6225 main 276 262 _____________P -1 26.8774 -87.6225 WV 20 3 318
1881208N35286 1881 23 NA GM NOT_NAMED 1881-08-01 06:00:00 DS 27.0000 -87.7000 main 262 247 _____________O -1 27.0000 -87.7000 WV 20 3 330
1881208N35286 1881 23 NA GM NOT_NAMED 1881-08-01 09:00:00 DS 27.1500 -87.8000 main 237 223 _____________P -1 27.1500 -87.8000 WV 20 4 330
1881208N35286 1881 23 NA GM NOT_NAMED 1881-08-01 12:00:00 DS 27.3000 -87.9000 main 223 208 _____________O -1 27.3000 -87.9000 WV 20 3 326
1881208N35286 1881 23 NA GM NOT_NAMED 1881-08-01 15:00:00 DS 27.4075 -88.0000 main 208 193 _____________P -1 27.4075 -88.0000 WV 20 3 318
1881208N35286 1881 23 NA GM NOT_NAMED 1881-08-01 18:00:00 DS 27.5000 -88.1000 main 193 179 _____________O -1 27.5000 -88.1000 WV 20 3 316
1881208N35286 1881 23 NA GM NOT_NAMED 1881-08-01 21:00:00 DS 27.5925 -88.2000 main 179 164 _____________P -1 27.5925 -88.2000 WV 22 3 318
1881208N35286 1881 23 NA GM NOT_NAMED 1881-08-02 00:00:00 DS 27.7000 -88.3000 main 164 150 _____________O -1 27.7000 -88.3000 WV 25 3 323
1881208N35286 1881 23 NA GM NOT_NAMED 1881-08-02 03:00:00 DS 27.8275 -88.4001 main 150 126 _____________P -1 27.8275 -88.4001 WV 27 3 330
1881208N35286 1881 23 NA GM NOT_NAMED 1881-08-02 06:00:00 TS 28.0000 -88.5000 main 126 101 _____________O -1 28.0000 -88.5000 TD 30 4 335
1881208N35286 1881 23 NA GM NOT_NAMED 1881-08-02 09:00:00 TS 28.2200 -88.6075 main 101 68 _____________P -1 28.2200 -88.6075 TD 32 5 340
1881208N35286 1881 23 NA GM NOT_NAMED 1881-08-02 12:00:00 TS 28.5000 -88.7000 main 68 36 _____________O -1 28.5000 -88.7000 TS 35 6 347
1881208N35286 1881 23 NA GM NOT_NAMED 1881-08-02 15:00:00 TS 28.8350 -88.7650 main 36 19 _____________P -1 28.8350 -88.7650 TS 37 7 353
1881208N35286 1881 23 NA GM NOT_NAMED 1881-08-02 18:00:00 TS 29.2000 -88.8000 main 22 22 _____________O -1 29.2000 -88.8000 TS 40 7 359
1881208N35286 1881 23 NA GM NOT_NAMED 1881-08-02 21:00:00 TS 29.5349 -88.7706 main 44 44 _____________P -1 29.5349 -88.7706 TS 40 7 0
1881208N35286 1881 23 NA GM NOT_NAMED 1881-08-03 00:00:00 TS 29.9000 -88.8000 main 45 11 _____________O -1 29.9000 -88.8000 TS 40 8 346
1881208N35286 1881 23 NA GM NOT_NAMED 1881-08-03 03:00:00 TS 30.3500 -88.9973 main 11 0 _____________P -1 30.3500 -88.9973 TS 35 10 334
1881208N35286 1881 23 NA NA NOT_NAMED 1881-08-03 06:00:00 TS 30.8000 -89.3000 main 0 0 _____________O -1 30.8000 -89.3000 TD 30 10 324
1881208N35286 1881 23 NA NA NOT_NAMED 1881-08-03 09:00:00 TS 31.1653 -89.6871 main 0 0 _____________P -1 31.1653 -89.6871 TD 30 9 319
1881208N35286 1881 23 NA NA NOT_NAMED 1881-08-03 12:00:00 TS 31.5000 -90.0000 main 0 0 _____________O -1 31.5000 -90.0000 TD 30 8 334
1881208N35286 1881 23 NA NA NOT_NAMED 1881-08-03 15:00:00 TS 31.8448 -90.0756 main 0 0 _____________P -1 31.8448 -90.0756 TD 30 7 0
1881208N35286 1881 23 NA NA NOT_NAMED 1881-08-03 18:00:00 TS 32.2000 -90.0000 main 0 _____________O -1 32.2000 -90.0000 TD 30 7 12

About IBTrACS Database

This database is a web-friendly format of International Best Track Archive for Climate Stewardship (IBTrACS), a global best track data archive curated by NOAA dating back to 1842.

Updated: 2021-10-08